Time;durP1;ratioP1;P1;durP2;ratioP2;P2;SDS_P1;SDS_P2;PMS_P1;PMS_P2;Temp;Humidity;BMP_temperature;BMP_pressure;BME280_temperature;BME280_humidity;BME280_pressure;Samples;Min_cycle;Max_cycle;Signal;HPM_P1;HPM_P2
2021/06/15 00:03:28;;;;;;;16.42;10.65;;;;;;;13.65;83.29;100532.17;2689644;88;21031;-70
2021/06/15 00:07:30;;;;;;;20.52;13.75;;;;;;;13.65;83.18;100536.70;2689708;88;21075;-69
2021/06/15 00:11:32;;;;;;;22.67;16.97;;;;;;;13.62;83.33;100544.48;2689611;87;21031;-69
2021/06/15 00:15:33;;;;;;;19.90;14.25;;;;;;;13.56;83.56;100536.56;2689524;88;20988;-68
2021/06/15 00:19:35;;;;;;;18.20;11.63;;;;;;;13.57;83.47;100529.38;2690051;88;21043;-68
2021/06/15 00:23:37;;;;;;;18.50;10.30;;;;;;;13.51;83.64;100516.58;2691871;88;21059;-67
2021/06/15 00:27:40;;;;;;;15.08;10.30;;;;;;;13.43;83.87;100514.59;2692110;88;21120;-68
2021/06/15 00:31:41;;;;;;;18.17;10.63;;;;;;;13.40;84.10;100515.67;2692640;88;21059;-69
2021/06/15 00:35:43;;;;;;;12.90;9.45;;;;;;;13.33;84.35;100503.86;2692662;88;21020;-68
2021/06/15 00:39:47;;;;;;;19.15;10.63;;;;;;;13.28;84.64;100498.10;2692853;88;21036;-67
2021/06/15 00:43:48;;;;;;;14.35;9.08;;;;;;;13.22;84.96;100496.82;2692954;88;21099;-67
2021/06/15 00:47:51;;;;;;;11.53;9.80;;;;;;;13.17;85.20;100495.06;2692624;88;21088;-67
2021/06/15 00:51:55;;;;;;;16.12;9.10;;;;;;;13.16;85.36;100494.68;2692670;88;21139;-68
2021/06/15 00:55:58;;;;;;;17.90;10.40;;;;;;;13.14;85.14;100491.30;2692270;88;21063;-67
2021/06/15 01:00:00;;;;;;;12.13;9.63;;;;;;;13.07;85.38;100492.84;2692051;88;21060;-67
2021/06/15 01:04:01;;;;;;;19.45;10.18;;;;;;;13.02;85.65;100487.91;2692183;88;21111;-67
2021/06/15 01:08:20;;;;;;;14.05;10.10;;;;;;;12.99;85.93;100491.72;2692390;87;21132;-67
2021/06/15 01:12:47;;;;;;;22.05;10.93;;;;;;;12.96;86.17;100487.95;2688665;88;21608;-67
2021/06/15 01:16:55;;;;;;;;;;;;;;;12.91;86.35;100481.36;2695485;88;21341;-67
2021/06/15 01:21:05;;;;;;;16.52;10.82;;;;;;;12.84;86.69;100481.88;2692864;88;20111;-66
2021/06/15 01:25:23;;;;;;;19.95;10.80;;;;;;;12.81;86.80;100468.81;2692943;88;21083;-67
2021/06/15 01:29:38;;;;;;;15.48;9.55;;;;;;;12.78;86.87;100467.75;2692822;88;21109;-67
2021/06/15 01:33:45;;;;;;;14.75;10.40;;;;;;;12.73;87.09;100469.13;2707998;88;21023;-67
2021/06/15 01:37:54;;;;;;;13.30;10.45;;;;;;;12.74;87.21;100469.02;2707812;88;21139;-67
2021/06/15 01:42:31;;;;;;;19.07;10.25;;;;;;;12.74;87.25;100461.48;2707662;88;21055;-69
2021/06/15 01:46:58;;;;;;;18.70;10.80;;;;;;;12.73;87.27;100467.33;2707241;88;21680;-66
2021/06/15 01:51:04;;;;;;;15.58;11.08;;;;;;;12.76;87.23;100459.52;2707730;88;21720;-67
2021/06/15 01:55:09;;;;;;;14.75;10.10;;;;;;;12.74;87.29;100446.80;2707863;88;21573;-67
2021/06/15 01:59:15;;;;;;;16.45;9.98;;;;;;;12.73;87.22;100450.45;2707677;88;21091;-68
2021/06/15 02:03:17;;;;;;;19.90;11.48;;;;;;;12.73;87.23;100458.45;2707368;88;21549;-67
2021/06/15 02:07:26;;;;;;;14.75;9.05;;;;;;;12.77;87.01;100452.72;2707684;88;21088;-68
2021/06/15 02:11:30;;;;;;;12.33;9.80;;;;;;;12.81;86.99;100450.63;2692474;88;21079;-68
2021/06/15 02:15:35;;;;;;;17.42;9.88;;;;;;;12.90;86.66;100455.14;2671284;88;21052;-68
2021/06/15 02:19:39;;;;;;;15.23;9.90;;;;;;;13.05;86.30;100456.09;2707814;87;21090;-68
2021/06/15 02:23:44;;;;;;;19.75;10.15;;;;;;;13.20;85.64;100452.52;2699821;87;21072;-67
2021/06/15 02:27:47;;;;;;;12.20;8.50;;;;;;;13.38;85.22;100450.02;2693326;88;21076;-68
2021/06/15 02:31:59;;;;;;;12.47;8.05;;;;;;;13.53;84.10;100453.14;2693005;88;21115;-68
2021/06/15 02:36:12;;;;;;;17.40;9.38;;;;;;;13.60;83.11;100454.76;2693127;88;21100;-68
2021/06/15 02:40:15;;;;;;;13.58;7.62;;;;;;;13.65;82.06;100455.17;2692677;88;21050;-67
2021/06/15 02:44:20;;;;;;;12.65;8.00;;;;;;;13.59;81.89;100453.90;2692466;88;21770;-67
2021/06/15 02:48:25;;;;;;;10.40;6.72;;;;;;;13.55;81.20;100455.17;2692852;87;21076;-68
2021/06/15 02:52:47;;;;;;;13.60;8.58;;;;;;;13.42;81.17;100454.92;2691897;88;21083;-68
2021/06/15 02:56:53;;;;;;;7.97;7.08;;;;;;;13.42;81.27;100460.27;2693153;88;21071;-69
2021/06/15 03:00:55;;;;;;;14.90;8.58;;;;;;;13.47;81.20;100463.89;2693218;88;21078;-69
2021/06/15 03:04:57;;;;;;;15.93;8.60;;;;;;;13.48;81.30;100473.59;2693404;88;21039;-69
2021/06/15 03:08:59;;;;;;;8.88;7.03;;;;;;;13.51;81.49;100482.66;2693035;88;21048;-69
2021/06/15 03:13:14;;;;;;;11.12;7.83;;;;;;;13.46;81.74;100487.59;2693196;87;21068;-69
2021/06/15 03:17:17;;;;;;;11.53;8.50;;;;;;;13.46;81.61;100484.92;2693651;88;21047;-69
2021/06/15 03:21:21;;;;;;;10.23;7.40;;;;;;;13.46;81.91;100493.41;2693352;88;21052;-69
2021/06/15 03:25:28;;;;;;;13.55;6.20;;;;;;;13.58;82.53;100488.80;2672885;88;21096;-69
2021/06/15 03:29:34;;;;;;;11.28;6.97;;;;;;;13.55;81.84;100489.41;2693085;88;21521;-69
2021/06/15 03:33:37;;;;;;;18.70;7.45;;;;;;;13.50;82.72;100490.33;2693433;88;21055;-69
2021/06/15 03:37:43;;;;;;;13.43;7.72;;;;;;;13.62;84.08;100494.22;2693546;88;21454;-69
2021/06/15 03:41:45;;;;;;;10.50;8.08;;;;;;;13.76;84.66;100487.59;2693666;88;21564;-68
2021/06/15 03:45:51;;;;;;;15.08;7.95;;;;;;;14.06;85.83;100493.25;2692941;88;21060;-69
2021/06/15 03:49:55;;;;;;;11.68;8.83;;;;;;;14.30;85.12;100496.45;2693267;88;21605;-69
2021/06/15 03:54:08;;;;;;;9.15;6.85;;;;;;;14.48;85.02;100508.56;2693070;88;20996;-69
2021/06/15 03:58:12;;;;;;;11.30;7.42;;;;;;;14.71;84.20;100509.91;2693385;88;21447;-68
2021/06/15 04:02:15;;;;;;;14.33;8.13;;;;;;;14.81;83.45;100505.02;2692082;86;21048;-68
2021/06/15 04:06:17;;;;;;;12.03;8.58;;;;;;;14.95;83.18;100503.20;2695954;88;21067;-69
2021/06/15 04:10:20;;;;;;;13.83;7.90;;;;;;;14.88;81.70;100504.77;2695864;87;22321;-69
2021/06/15 04:14:27;;;;;;;13.25;8.63;;;;;;;14.97;83.03;100513.27;2695779;88;21020;-68
2021/06/15 04:18:30;;;;;;;17.70;11.33;;;;;;;15.20;82.58;100506.15;2695705;88;21111;-69
2021/06/15 04:22:36;;;;;;;8.00;7.15;;;;;;;15.50;81.32;100505.95;2695616;87;21091;-69
2021/06/15 04:26:38;;;;;;;;;;;;;;;15.75;81.16;100503.00;2698295;88;21011;-69
2021/06/15 04:30:41;;;;;;;16.37;10.25;;;;;;;16.16;81.39;100507.03;2695698;88;20128;-69
2021/06/15 04:34:48;;;;;;;17.23;10.55;;;;;;;16.78;81.13;100498.80;2696416;88;21103;-69
2021/06/15 04:39:06;;;;;;;17.92;10.45;;;;;;;17.64;83.16;100493.83;2696163;88;21065;-69
2021/06/15 04:43:33;;;;;;;16.10;10.03;;;;;;;18.36;79.81;100494.97;2651506;87;21071;-69
2021/06/15 04:47:44;;;;;;;13.62;9.65;;;;;;;19.31;78.57;100491.07;2696844;88;21187;-68
2021/06/15 04:51:48;;;;;;;17.02;8.65;;;;;;;20.63;75.17;100484.47;2696769;88;21597;-68
2021/06/15 04:55:51;;;;;;;12.20;9.10;;;;;;;21.51;71.21;100483.64;2696724;88;21044;-68
2021/06/15 04:59:58;;;;;;;11.33;8.45;;;;;;;22.25;66.58;100479.38;2697390;88;21103;-68
2021/06/15 05:04:01;;;;;;;21.90;8.53;;;;;;;23.02;65.68;100483.42;2697689;88;21102;-68
2021/06/15 05:08:14;;;;;;;12.37;7.37;;;;;;;23.91;62.62;100480.66;2615946;90;21107;-68
2021/06/15 05:12:15;;;;;;;10.30;7.50;;;;;;;24.76;58.39;100472.77;2632386;88;21107;-68
2021/06/15 05:16:22;;;;;;;10.50;8.03;;;;;;;25.04;56.01;100473.80;2654396;89;21079;-69
2021/06/15 05:20:27;;;;;;;14.45;7.33;;;;;;;25.16;55.43;100476.69;2654169;89;21131;-69
2021/06/15 05:24:51;;;;;;;8.93;7.40;;;;;;;25.23;55.67;100487.00;2661505;89;21048;-68
2021/06/15 05:28:53;;;;;;;11.55;7.12;;;;;;;25.52;55.93;100492.90;2665479;89;21089;-68
2021/06/15 05:32:56;;;;;;;8.38;6.37;;;;;;;25.46;55.41;100491.04;2669645;89;21553;-67
2021/06/15 05:37:03;;;;;;;11.95;7.58;;;;;;;25.89;53.13;100484.55;2669581;89;21641;-67
2021/06/15 05:41:05;;;;;;;13.10;7.97;;;;;;;26.38;54.14;100483.38;2670060;89;21024;-68
2021/06/15 05:45:11;;;;;;;11.12;7.50;;;;;;;26.81;53.18;100487.91;2669936;89;21159;-69
2021/06/15 05:49:13;;;;;;;11.40;7.42;;;;;;;27.07;51.60;100487.30;2670156;89;21051;-68
2021/06/15 05:53:16;;;;;;;15.53;8.03;;;;;;;27.29;52.23;100490.88;2670058;89;21076;-68
2021/06/15 05:57:18;;;;;;;9.23;6.22;;;;;;;27.23;52.04;100491.27;2670213;89;21083;-69
2021/06/15 06:01:20;;;;;;;10.35;7.05;;;;;;;27.36;51.89;100500.34;2670347;89;21015;-68
2021/06/15 06:09:43;;;;;;;15.05;7.75;;;;;;;27.32;50.49;100490.96;2670298;89;21000;-69
2021/06/15 06:13:46;;;;;;;12.93;7.97;;;;;;;26.36;51.39;100484.98;2670328;89;21083;-68
2021/06/15 06:17:48;;;;;;;10.78;8.20;;;;;;;26.21;55.04;100491.33;2670613;89;21051;-69
2021/06/15 06:21:50;;;;;;;12.60;7.67;;;;;;;26.84;54.39;100489.90;2670927;89;21072;-68
2021/06/15 06:25:51;;;;;;;11.25;7.60;;;;;;;27.08;52.69;100490.33;2633604;89;21013;-69
2021/06/15 06:29:53;;;;;;;11.20;7.47;;;;;;;27.03;50.96;100493.45;2654842;89;21044;-68
2021/06/15 06:33:56;;;;;;;10.28;7.65;;;;;;;26.54;50.97;100491.51;2654235;89;21084;-68
2021/06/15 06:37:58;;;;;;;10.53;6.20;;;;;;;25.99;50.97;100494.95;2654655;89;21083;-68
2021/06/15 06:42:00;;;;;;;13.53;7.78;;;;;;;25.72;52.96;100497.36;2654517;89;21541;-68
2021/06/15 06:46:14;;;;;;;15.95;7.05;;;;;;;25.76;53.72;100490.95;2654488;89;21060;-68
2021/06/15 06:50:16;;;;;;;12.53;7.85;;;;;;;26.06;54.21;100495.20;2653353;89;21382;-68
2021/06/15 06:54:18;;;;;;;14.43;9.08;;;;;;;26.35;54.01;100487.92;2624623;90;21040;-68
2021/06/15 06:58:19;;;;;;;22.27;8.25;;;;;;;27.00;53.46;100505.65;2713587;87;21047;-68
2021/06/15 07:02:21;;;;;;;12.50;8.35;;;;;;;26.75;51.51;100493.47;2713931;87;21070;-68
2021/06/15 07:06:23;;;;;;;14.05;7.67;;;;;;;26.84;53.20;100493.99;2713702;87;21071;-68
2021/06/15 07:10:25;;;;;;;20.57;7.80;;;;;;;27.25;53.18;100495.15;2627206;90;21089;-68
2021/06/15 07:14:27;;;;;;;8.45;6.92;;;;;;;27.07;52.79;100497.38;2713836;87;21052;-68
2021/06/15 07:18:28;;;;;;;10.35;6.40;;;;;;;27.22;53.12;100495.62;2713899;87;21023;-67
2021/06/15 07:22:30;;;;;;;9.38;5.10;;;;;;;27.75;51.51;100487.16;2713831;87;21055;-69
2021/06/15 07:26:32;;;;;;;10.75;5.72;;;;;;;28.17;48.66;100487.60;2691876;87;21100;-68
2021/06/15 07:30:34;;;;;;;11.00;6.70;;;;;;;28.48;48.21;100484.19;2587661;91;21067;-68
2021/06/15 07:34:37;;;;;;;7.62;6.60;;;;;;;28.82;47.90;100491.75;2639291;90;21601;-69
2021/06/15 07:38:39;;;;;;;8.43;6.65;;;;;;;29.13;47.75;100485.51;2585509;92;21648;-68
2021/06/15 07:42:41;;;;;;;10.58;6.70;;;;;;;29.59;47.49;100493.75;2585989;91;21604;-69
2021/06/15 07:46:43;;;;;;;8.95;6.17;;;;;;;29.97;46.42;100480.35;2639421;90;21151;-69
2021/06/15 07:50:45;;;;;;;7.08;5.83;;;;;;;30.04;46.65;100478.28;2585689;92;21030;-69
2021/06/15 07:54:47;;;;;;;10.88;5.65;;;;;;;30.08;46.27;100481.92;2586093;91;21091;-69
2021/06/15 07:58:49;;;;;;;10.00;5.20;;;;;;;30.24;46.37;100476.91;2639986;90;21019;-70
2021/06/15 08:02:50;;;;;;;7.30;4.87;;;;;;;30.24;46.37;100476.91;2586005;92;21064;-69
2021/06/15 08:06:54;;;;;;;8.63;5.35;;;;;;;30.54;46.26;100477.05;2585708;91;21068;-70
2021/06/15 08:10:56;;;;;;;6.45;4.50;;;;;;;30.69;46.58;100449.53;2585676;91;21065;-69
2021/06/15 08:14:58;;;;;;;8.85;5.85;;;;;;;30.69;46.58;100449.53;2639766;88;21628;-69
2021/06/15 08:19:00;;;;;;;7.83;4.35;;;;;;;30.97;45.39;100475.09;2586001;92;21060;-69
2021/06/15 08:23:01;;;;;;;8.53;4.53;;;;;;;30.94;45.17;100464.63;2586030;91;21048;-69
2021/06/15 08:27:09;;;;;;;6.75;4.97;;;;;;;30.38;46.03;100455.45;2656357;89;21032;-66
2021/06/15 08:31:11;;;;;;;8.78;5.05;;;;;;;30.20;48.35;100476.61;2586481;92;21068;-66
2021/06/15 08:35:15;;;;;;;9.10;4.25;;;;;;;30.12;47.00;100480.33;2647111;90;21061;-68
2021/06/15 08:39:17;;;;;;;7.70;4.80;;;;;;;29.91;46.69;100451.20;2647170;90;21084;-68
2021/06/15 08:43:20;;;;;;;9.20;5.87;;;;;;;30.10;47.10;100471.52;2647734;90;21032;-68
2021/06/15 08:47:22;;;;;;;11.00;4.72;;;;;;;30.28;47.66;100470.39;2647754;90;21037;-67
2021/06/15 08:51:24;;;;;;;10.15;4.72;;;;;;;30.25;46.97;100466.23;2646563;90;21092;-66
2021/06/15 08:55:35;;;;;;;7.00;4.55;;;;;;;30.11;46.92;100430.67;2647141;90;21013;-65
2021/06/15 08:59:36;;;;;;;9.28;4.37;;;;;;;30.15;45.42;100471.59;2665283;88;21061;-65
2021/06/15 09:03:40;;;;;;;7.30;4.90;;;;;;;30.21;46.54;100463.19;2683880;88;21014;-66
2021/06/15 09:08:04;;;;;;;5.65;4.42;;;;;;;30.08;46.60;100429.81;2684480;88;21559;-66
2021/06/15 09:12:09;;;;;;;7.22;4.42;;;;;;;30.35;45.33;100466.91;2683750;88;21042;-66
2021/06/15 09:16:36;;;;;;;6.22;3.95;;;;;;;30.39;44.17;100432.94;2683945;88;21042;-66
2021/06/15 09:20:38;;;;;;;7.15;4.65;;;;;;;30.71;43.85;100461.91;2683438;88;21053;-67
2021/06/15 09:24:46;;;;;;;13.30;8.60;;;;;;;31.00;45.66;100461.69;2679247;88;21027;-68
2021/06/15 09:28:51;;;;;;;9.38;6.25;;;;;;;30.94;45.26;100456.39;2649566;88;21102;-68
2021/06/15 09:32:53;;;;;;;;;;;;;;;30.91;44.24;100447.59;2709682;88;21036;-67
2021/06/15 09:36:55;;;;;;;8.80;4.83;;;;;;;30.86;42.21;100453.03;2707196;88;20148;-67
2021/06/15 09:40:57;;;;;;;8.40;5.00;;;;;;;30.86;42.83;100448.91;2659119;89;21715;-67
2021/06/15 09:45:04;;;;;;;5.25;3.62;;;;;;;30.74;41.67;100449.59;2706921;88;21056;-67
2021/06/15 09:49:09;;;;;;;7.67;5.60;;;;;;;30.69;42.03;100446.80;2706074;88;21051;-68
2021/06/15 09:53:31;;;;;;;7.10;4.17;;;;;;;30.57;43.77;100450.46;2707496;88;21016;-68
2021/06/15 09:57:39;;;;;;;7.28;3.80;;;;;;;30.39;43.62;100449.41;2707007;88;21056;-67
2021/06/15 10:01:43;;;;;;;4.85;3.50;;;;;;;30.34;44.81;100456.49;2706534;88;21052;-69
2021/06/15 10:05:45;;;;;;;5.20;3.50;;;;;;;30.40;44.67;100453.28;2611536;89;21044;-68
2021/06/15 10:09:47;;;;;;;7.30;5.05;;;;;;;30.49;44.18;100453.11;2602253;90;21107;-68
2021/06/15 10:13:48;;;;;;;9.25;6.28;;;;;;;30.72;43.48;100444.91;2601411;90;21067;-68
2021/06/15 10:17:50;;;;;;;6.22;4.28;;;;;;;30.72;43.48;100444.91;2645849;88;21036;-67
2021/06/15 10:21:54;;;;;;;5.87;3.62;;;;;;;30.63;42.87;100442.59;2646809;89;21047;-68
2021/06/15 10:25:57;;;;;;;10.70;4.60;;;;;;;30.57;41.29;100434.55;2648666;87;21056;-69
2021/06/15 10:29:59;;;;;;;4.47;3.47;;;;;;;30.54;41.82;100429.02;2712292;87;21071;-69
2021/06/15 10:34:11;;;;;;;7.08;4.20;;;;;;;30.52;40.71;100424.34;2722350;87;21303;-68
2021/06/15 10:38:35;;;;;;;4.80;4.30;;;;;;;30.28;41.64;100423.75;2722338;87;21074;-66
2021/06/15 10:42:37;;;;;;;4.63;3.57;;;;;;;30.31;43.23;100417.23;2703441;87;22430;-68
2021/06/15 10:46:54;;;;;;;11.35;3.87;;;;;;;30.48;42.83;100417.70;2716397;87;21070;-70
2021/06/15 10:50:59;;;;;;;5.40;3.50;;;;;;;30.48;42.83;100417.70;2680539;87;21039;-70
2021/06/15 10:55:23;;;;;;;3.62;2.95;;;;;;;30.58;42.08;100418.37;2720074;87;21007;-70
2021/06/15 10:59:24;;;;;;;6.05;3.65;;;;;;;30.49;41.97;100411.13;2719095;87;21033;-70
2021/06/15 11:03:26;;;;;;;4.53;3.40;;;;;;;30.45;42.61;100408.06;2721172;87;21035;-70
2021/06/15 11:07:38;;;;;;;3.70;3.05;;;;;;;30.28;43.17;100404.02;2688216;87;21035;-68
2021/06/15 11:11:43;;;;;;;4.70;4.08;;;;;;;30.04;42.60;100408.36;2712050;87;21022;-69
2021/06/15 11:16:00;;;;;;;4.83;3.10;;;;;;;30.08;43.09;100405.95;2713371;87;21074;-70
2021/06/15 11:20:07;;;;;;;6.58;3.75;;;;;;;30.17;43.77;100405.81;2720614;87;21094;-70
2021/06/15 11:24:50;;;;;;;7.22;3.45;;;;;;;30.21;44.82;100397.88;2715771;87;21049;-69
2021/06/15 11:28:59;;;;;;;6.08;3.55;;;;;;;30.37;44.66;100373.39;2709060;87;21048;-70
2021/06/15 11:33:08;;;;;;;3.98;3.62;;;;;;;30.37;44.66;100373.39;2677778;87;21090;-70
2021/06/15 11:37:24;;;;;;;5.50;3.65;;;;;;;30.52;44.04;100387.28;2677071;87;21063;-69
2021/06/15 11:42:05;;;;;;;5.10;3.15;;;;;;;30.54;43.11;100390.59;2693706;86;21051;-70
2021/06/15 11:46:14;;;;;;;4.92;3.33;;;;;;;30.53;44.61;100385.36;2686381;86;21123;-69
2021/06/15 11:50:36;;;;;;;4.97;3.50;;;;;;;30.50;43.82;100381.23;2685822;86;21075;-71
2021/06/15 11:54:41;;;;;;;8.25;3.58;;;;;;;30.15;44.99;100374.22;2683048;87;21048;-69
2021/06/15 11:58:46;;;;;;;;;;;;;;;30.06;44.09;100369.16;2707910;86;21072;-69
2021/06/15 12:02:47;;;;;;;6.62;3.02;;;;;;;30.26;44.33;100367.77;2703511;86;20102;-69
2021/06/15 12:06:48;;;;;;;13.93;4.83;;;;;;;30.47;44.66;100343.33;2689894;86;21067;-68
2021/06/15 12:10:51;;;;;;;3.98;2.58;;;;;;;30.47;44.66;100343.33;2700677;86;21020;-68
2021/06/15 12:14:57;;;;;;;5.42;3.35;;;;;;;30.50;45.08;100355.97;2702971;86;21031;-68
2021/06/15 12:18:59;;;;;;;4.17;3.35;;;;;;;30.44;43.83;100354.80;2682263;88;21012;-68
2021/06/15 12:23:40;;;;;;;6.28;3.55;;;;;;;30.57;44.03;100359.89;2686307;86;21012;-68
2021/06/15 12:27:42;;;;;;;4.78;3.30;;;;;;;30.73;44.49;100362.27;2694346;86;21056;-68
2021/06/15 12:31:50;;;;;;;3.15;2.85;;;;;;;30.67;44.03;100356.45;2686269;88;21099;-69
2021/06/15 12:36:02;;;;;;;5.30;3.50;;;;;;;30.69;43.33;100356.21;2683228;87;21044;-68
2021/06/15 12:40:06;;;;;;;7.90;3.50;;;;;;;30.67;43.82;100353.71;2681580;88;21030;-68
2021/06/15 12:44:11;;;;;;;5.00;3.80;;;;;;;30.55;44.12;100346.97;2682836;88;21186;-68
2021/06/15 12:48:28;;;;;;;5.12;3.17;;;;;;;30.50;44.02;100353.79;2683284;88;21100;-68
2021/06/15 12:52:38;;;;;;;4.97;3.12;;;;;;;30.41;43.98;100345.19;2708489;88;21265;-66
2021/06/15 12:56:59;;;;;;;4.78;3.40;;;;;;;30.27;44.11;100336.53;2708646;87;21012;-67
2021/06/15 13:01:06;;;;;;;3.37;3.08;;;;;;;30.37;45.22;100341.84;2707678;88;21024;-67
2021/06/15 13:05:16;;;;;;;6.22;3.08;;;;;;;30.47;44.86;100341.96;2705746;88;21022;-66
2021/06/15 13:09:27;;;;;;;4.33;2.98;;;;;;;30.48;45.91;100336.75;2708869;87;21056;-68
2021/06/15 13:13:29;;;;;;;7.60;3.05;;;;;;;30.48;44.31;100335.38;2708972;87;21020;-67
2021/06/15 13:17:33;;;;;;;3.62;2.52;;;;;;;30.39;44.20;100328.69;2679561;88;21081;-68
2021/06/15 13:21:55;;;;;;;7.05;3.27;;;;;;;30.33;45.40;100327.27;2665906;89;21085;-67
2021/06/15 13:25:57;;;;;;;6.95;2.87;;;;;;;30.29;44.79;100329.40;2665802;89;21607;-67
2021/06/15 13:30:10;;;;;;;5.35;2.90;;;;;;;30.25;45.36;100320.84;2657597;89;21108;-67
2021/06/15 13:34:14;;;;;;;7.67;3.37;;;;;;;30.23;44.60;100315.34;2671757;89;21096;-67
2021/06/15 13:38:29;;;;;;;3.83;2.55;;;;;;;30.27;44.43;100310.47;2658012;89;21029;-67
2021/06/15 13:42:33;;;;;;;4.08;2.92;;;;;;;30.40;44.02;100307.86;2671776;89;21068;-67
2021/06/15 13:46:50;;;;;;;4.03;3.15;;;;;;;30.58;43.69;100314.89;2696359;86;21051;-67
2021/06/15 13:50:52;;;;;;;5.42;3.15;;;;;;;30.69;43.58;100319.16;2713630;86;21035;-67
2021/06/15 13:54:55;;;;;;;3.65;3.35;;;;;;;30.74;43.30;100315.08;2714648;87;21038;-67
2021/06/15 13:58:58;;;;;;;4.83;2.87;;;;;;;30.81;43.04;100323.91;2714920;87;21044;-67
2021/06/15 14:03:03;;;;;;;3.00;2.37;;;;;;;30.81;43.54;100319.80;2714347;87;21079;-67
2021/06/15 14:07:08;;;;;;;14.30;3.50;;;;;;;30.87;43.21;100320.67;2714779;87;21185;-67
2021/06/15 14:11:10;;;;;;;4.65;3.27;;;;;;;31.07;44.47;100321.41;2714647;87;21023;-67
2021/06/15 14:15:17;;;;;;;8.63;3.47;;;;;;;31.22;43.68;100317.12;2714344;87;21538;-67
2021/06/15 14:19:19;;;;;;;5.78;2.92;;;;;;;31.11;42.37;100311.55;2698684;88;21081;-67
2021/06/15 14:23:21;;;;;;;4.33;2.98;;;;;;;31.00;43.13;100322.16;2698595;88;21037;-67
2021/06/15 14:27:22;;;;;;;3.50;2.67;;;;;;;30.90;43.41;100316.88;2698246;88;21045;-67
2021/06/15 14:31:24;;;;;;;3.72;2.83;;;;;;;30.79;43.05;100311.00;2700580;86;21718;-67
2021/06/15 14:35:28;;;;;;;3.17;2.65;;;;;;;30.75;43.18;100312.61;2687127;86;21084;-66
2021/06/15 14:39:30;;;;;;;5.12;3.12;;;;;;;30.88;44.11;100316.31;2695824;87;21100;-67
2021/06/15 14:43:32;;;;;;;5.42;2.98;;;;;;;30.98;44.48;100321.06;2654531;89;21045;-66
2021/06/15 14:47:35;;;;;;;5.78;3.22;;;;;;;30.94;44.36;100319.09;2674658;88;21030;-67
2021/06/15 14:51:37;;;;;;;5.55;3.47;;;;;;;30.97;44.54;100319.94;2657633;89;21025;-67
2021/06/15 14:55:38;;;;;;;3.40;2.83;;;;;;;31.02;43.58;100318.59;2671919;89;21092;-67
2021/06/15 14:59:40;;;;;;;3.20;2.90;;;;;;;30.89;43.88;100315.75;2657490;89;21057;-68
2021/06/15 15:03:42;;;;;;;9.38;3.25;;;;;;;30.83;44.29;100319.55;2657444;89;21085;-67
2021/06/15 15:07:44;;;;;;;3.92;3.17;;;;;;;30.69;44.47;100304.87;2657252;89;21099;-67
2021/06/15 15:11:47;;;;;;;6.10;3.42;;;;;;;30.50;44.48;100304.39;2671738;89;21065;-67
2021/06/15 15:15:50;;;;;;;4.47;2.80;;;;;;;30.44;45.04;100306.78;2671767;89;21132;-67
2021/06/15 15:19:54;;;;;;;6.17;4.03;;;;;;;30.37;44.38;100300.68;2671964;89;21014;-67
2021/06/15 15:24:00;;;;;;;8.35;4.75;;;;;;;30.28;45.09;100301.16;2657188;89;21049;-67
2021/06/15 15:28:05;;;;;;;7.22;3.47;;;;;;;30.17;45.35;100302.11;2672120;89;21054;-68
2021/06/15 15:32:07;;;;;;;4.00;2.20;;;;;;;30.13;46.52;100303.72;2673053;89;21033;-68
2021/06/15 15:36:10;;;;;;;4.83;2.80;;;;;;;30.05;44.57;100302.25;2673311;89;21045;-68
2021/06/15 15:40:17;;;;;;;4.10;3.00;;;;;;;30.00;44.22;100300.23;2673288;89;21065;-68
2021/06/15 15:44:24;;;;;;;6.87;2.95;;;;;;;29.72;45.48;100299.36;2672859;89;21104;-67
2021/06/15 15:48:33;;;;;;;6.72;3.45;;;;;;;29.72;46.11;100292.50;2672966;89;21104;-67
2021/06/15 15:52:36;;;;;;;3.47;3.17;;;;;;;29.70;45.75;100294.67;2672891;89;21693;-67
2021/06/15 15:56:43;;;;;;;2.95;2.55;;;;;;;29.73;45.46;100286.46;2672832;89;21052;-67
2021/06/15 16:00:45;;;;;;;10.55;3.47;;;;;;;29.64;48.38;100293.77;2672074;89;21049;-67
2021/06/15 16:04:47;;;;;;;8.45;3.30;;;;;;;29.64;48.38;100293.77;2702939;87;21036;-67
2021/06/15 16:08:49;;;;;;;4.85;3.33;;;;;;;29.36;49.12;100270.87;2706400;87;21528;-67
2021/06/15 16:12:50;;;;;;;6.78;2.98;;;;;;;29.46;49.72;100292.13;2706152;88;21963;-67
2021/06/15 16:16:53;;;;;;;3.92;3.20;;;;;;;29.47;48.53;100282.83;2706473;88;21037;-67
2021/06/15 16:20:55;;;;;;;4.03;3.60;;;;;;;29.35;49.95;100288.94;2706155;86;21097;-67
2021/06/15 16:25:03;;;;;;;5.03;3.27;;;;;;;29.28;49.29;100294.59;2706224;86;21026;-67
2021/06/15 16:29:05;;;;;;;4.25;2.72;;;;;;;29.21;49.04;100292.02;2714715;87;21061;-67
2021/06/15 16:33:08;;;;;;;7.58;3.47;;;;;;;29.02;51.23;100297.46;2723578;87;21007;-67
2021/06/15 16:37:10;;;;;;;6.00;3.17;;;;;;;29.02;51.23;100297.46;2723897;87;21075;-67
2021/06/15 16:41:12;;;;;;;4.42;3.47;;;;;;;28.93;52.09;100295.16;2720509;86;21027;-68
2021/06/15 16:45:16;;;;;;;6.90;3.40;;;;;;;28.88;52.49;100295.05;2699627;88;21080;-67
2021/06/15 16:49:18;;;;;;;6.15;3.12;;;;;;;28.82;51.39;100290.58;2700406;88;21044;-67
2021/06/15 16:53:20;;;;;;;5.87;3.37;;;;;;;28.75;50.08;100292.06;2700168;88;21056;-67
2021/06/15 16:57:28;;;;;;;6.30;3.08;;;;;;;28.68;53.28;100292.77;2700637;88;21020;-67
2021/06/15 17:01:30;;;;;;;7.22;3.70;;;;;;;28.64;51.35;100298.45;2701210;88;21068;-68
2021/06/15 17:05:37;;;;;;;10.75;4.40;;;;;;;28.59;50.42;100300.55;2700781;88;21095;-68
2021/06/15 17:09:39;;;;;;;8.88;3.40;;;;;;;28.56;54.91;100301.57;2700774;88;20989;-68
2021/06/15 17:13:41;;;;;;;7.33;4.22;;;;;;;28.44;56.66;100298.89;2701119;88;21028;-68
2021/06/15 17:17:43;;;;;;;4.03;2.95;;;;;;;28.39;57.86;100293.34;2701495;88;20980;-68
2021/06/15 17:21:45;;;;;;;4.58;3.72;;;;;;;28.36;53.47;100291.91;2699938;87;21024;-67
2021/06/15 17:25:54;;;;;;;5.15;3.25;;;;;;;28.31;53.55;100292.66;2700346;88;21063;-68
2021/06/15 17:29:56;;;;;;;6.12;4.22;;;;;;;28.22;54.47;100295.48;2710110;87;21043;-69
2021/06/15 17:34:09;;;;;;;8.40;4.65;;;;;;;28.14;56.49;100292.56;2716427;87;21016;-68
2021/06/15 17:38:12;;;;;;;6.47;3.83;;;;;;;28.05;57.70;100290.75;2716769;87;21008;-69
2021/06/15 17:42:14;;;;;;;8.03;3.75;;;;;;;27.99;59.31;100284.89;2716773;87;21112;-68
2021/06/15 17:46:17;;;;;;;10.53;5.30;;;;;;;27.87;58.95;100286.81;2716373;87;21075;-68
2021/06/15 17:50:19;;;;;;;15.95;5.00;;;;;;;27.75;60.57;100285.47;2716972;87;21047;-68
2021/06/15 17:54:22;;;;;;;5.87;3.92;;;;;;;27.60;60.79;100282.70;2716830;87;21044;-68
2021/06/15 17:58:23;;;;;;;8.50;4.47;;;;;;;27.50;62.32;100277.81;2717026;87;21055;-69
2021/06/15 18:02:26;;;;;;;13.68;5.08;;;;;;;27.44;63.30;100280.14;2717072;87;21115;-68
2021/06/15 18:06:32;;;;;;;9.25;6.12;;;;;;;27.40;63.21;100279.48;2716882;87;20992;-68
2021/06/15 18:10:34;;;;;;;11.70;7.20;;;;;;;27.39;63.04;100273.20;2717158;87;21047;-69
2021/06/15 18:14:39;;;;;;;16.95;7.58;;;;;;;27.39;62.05;100274.57;2717170;87;21075;-69
2021/06/15 18:18:41;;;;;;;;;;;;;;;27.34;62.33;100270.37;2719531;87;21036;-68
2021/06/15 18:22:43;;;;;;;9.70;5.85;;;;;;;27.26;64.87;100270.19;2716870;87;20095;-69
2021/06/15 18:26:45;;;;;;;9.15;6.72;;;;;;;27.16;64.46;100265.84;2716416;87;21086;-69
2021/06/15 18:30:47;;;;;;;10.00;5.05;;;;;;;27.04;65.52;100271.30;2716956;87;20973;-68
2021/06/15 18:34:51;;;;;;;10.28;5.92;;;;;;;26.88;67.15;100268.19;2716818;87;21059;-68
2021/06/15 18:38:53;;;;;;;13.98;6.53;;;;;;;26.71;68.00;100272.11;2717196;87;21056;-68
2021/06/15 18:43:00;;;;;;;10.78;7.70;;;;;;;26.44;69.10;100282.58;2716974;87;21007;-67
2021/06/15 18:47:08;;;;;;;15.75;4.95;;;;;;;26.17;69.84;100285.68;2716895;86;21079;-68
2021/06/15 18:51:09;;;;;;;9.45;5.20;;;;;;;26.03;70.26;100293.98;2717557;87;21092;-68
2021/06/15 18:55:23;;;;;;;7.62;5.25;;;;;;;25.89;71.05;100291.11;2717575;87;21660;-68
2021/06/15 18:59:25;;;;;;;6.37;5.58;;;;;;;25.75;71.23;100288.56;2717380;87;21063;-68
2021/06/15 19:03:27;;;;;;;7.78;6.08;;;;;;;25.66;71.21;100297.55;2717631;87;21056;-68